Time;durP1;ratioP1;P1;durP2;ratioP2;P2;SDS_P1;SDS_P2;PMS_P1;PMS_P2;Temp;Humidity;BMP_temperature;BMP_pressure;BME280_temperature;BME280_humidity;BME280_pressure;Samples;Min_cycle;Max_cycle;Signal;HPM_P1;HPM_P2
2022/08/14 00:01:20;;;;;;;8.73;6.45;;;;;;;19.47;61.72;101037.84;5052524;28;20025;-82
2022/08/14 00:03:45;;;;;;;7.80;6.10;;;;;;;19.47;61.71;101051.19;5049911;28;20029;-82
2022/08/14 00:06:10;;;;;;;11.68;6.35;;;;;;;19.41;62.01;101034.00;5048754;28;20413;-74
2022/08/14 00:08:35;;;;;;;6.75;6.20;;;;;;;19.47;61.83;101035.16;5051753;28;20048;-73
2022/08/14 00:11:01;;;;;;;7.70;7.03;;;;;;;19.37;62.16;101029.16;5050238;28;20024;-73
2022/08/14 00:13:30;;;;;;;7.82;6.57;;;;;;;19.33;62.82;101031.34;5051668;28;20032;-73
2022/08/14 00:15:59;;;;;;;7.75;6.72;;;;;;;19.31;62.48;101028.00;5051645;28;20021;-74
2022/08/14 00:18:26;;;;;;;8.50;6.80;;;;;;;19.32;62.78;101029.66;5049266;28;20029;-74
2022/08/14 00:20:56;;;;;;;8.60;6.93;;;;;;;19.31;62.82;101017.31;5051670;28;20037;-79
2022/08/14 00:23:22;;;;;;;10.55;6.95;;;;;;;19.28;63.10;101016.81;5039040;28;20033;-75
2022/08/14 00:25:53;;;;;;;8.15;6.57;;;;;;;19.31;63.02;101016.50;5069984;28;20036;-74
2022/08/14 00:28:25;;;;;;;8.57;7.05;;;;;;;19.22;63.21;101014.81;5051106;28;20036;-82
2022/08/14 00:30:58;;;;;;;8.40;6.97;;;;;;;19.15;63.50;101011.97;5051540;28;20025;-81
2022/08/14 00:33:24;;;;;;;10.05;7.38;;;;;;;19.14;63.21;101007.63;5051305;28;20029;-74
2022/08/14 00:35:50;;;;;;;8.85;7.78;;;;;;;19.10;63.17;101003.63;5051549;28;20520;-74
2022/08/14 00:38:16;;;;;;;8.43;7.55;;;;;;;19.02;63.50;100993.78;5049295;28;20037;-73
2022/08/14 00:40:41;;;;;;;10.60;7.85;;;;;;;18.99;63.28;100993.28;5048739;28;20513;-74
2022/08/14 00:43:08;;;;;;;9.65;7.40;;;;;;;18.97;63.52;100992.63;5049305;28;20082;-74
2022/08/14 00:45:34;;;;;;;8.40;7.60;;;;;;;18.97;63.29;100989.94;5050667;28;20417;-74
2022/08/14 00:48:00;;;;;;;9.80;7.65;;;;;;;18.98;63.03;100989.78;5050527;28;20021;-74
2022/08/14 00:50:27;;;;;;;11.10;7.70;;;;;;;18.97;63.24;100982.78;5051134;28;20086;-74
2022/08/14 00:52:53;;;;;;;11.30;7.72;;;;;;;18.85;63.43;100978.78;5050379;28;20029;-80
2022/08/14 00:55:19;;;;;;;9.85;7.90;;;;;;;18.77;63.57;100982.22;5049906;28;20079;-81
2022/08/14 00:58:29;;;;;;;8.85;7.50;;;;;;;18.86;63.36;100974.28;5048107;28;20048;-81
2022/08/14 01:00:32;;;;;;;8.77;7.70;;;;;;;18.81;63.38;100965.91;5047269;28;20126;-73
2022/08/14 01:02:58;;;;;;;9.80;7.72;;;;;;;18.79;63.12;100964.22;5083316;28;20385;-73
2022/08/14 01:05:23;;;;;;;8.70;7.90;;;;;;;18.79;63.15;100969.56;5051726;28;20100;-80
2022/08/14 01:07:56;;;;;;;9.60;8.68;;;;;;;18.75;63.22;100962.91;5082528;28;20021;-73
2022/08/14 01:13:15;;;;;;;13.48;8.45;;;;;;;18.72;63.19;100949.06;5050105;28;20087;-82
2022/08/14 01:15:42;;;;;;;9.52;8.63;;;;;;;18.80;62.71;100954.41;5045618;28;20029;-73
2022/08/14 01:21:02;;;;;;;8.98;8.00;;;;;;;18.73;62.77;100946.22;5050524;28;20469;-73
2022/08/14 01:23:29;;;;;;;9.50;7.60;;;;;;;18.73;63.19;100956.06;5050766;28;20028;-73
2022/08/14 01:25:55;;;;;;;10.32;7.90;;;;;;;18.71;63.13;100956.22;5048879;28;20137;-80
2022/08/14 01:28:21;;;;;;;9.05;7.70;;;;;;;18.68;63.13;100948.56;5049663;28;20496;-81
2022/08/14 01:30:48;;;;;;;11.52;8.85;;;;;;;18.57;63.67;100942.69;5048766;28;20060;-80
2022/08/14 01:33:14;;;;;;;9.98;8.02;;;;;;;18.51;63.50;100946.84;5042949;28;20028;-81
2022/08/14 01:35:43;;;;;;;8.95;7.78;;;;;;;18.58;63.67;100953.19;5049236;28;20032;-80
2022/08/14 01:38:14;;;;;;;10.38;7.80;;;;;;;18.50;63.76;100953.16;5046869;28;20029;-80
2022/08/14 01:40:40;;;;;;;10.05;7.72;;;;;;;18.56;63.35;100957.00;5030001;28;20014;-80
2022/08/14 01:43:14;;;;;;;9.50;8.15;;;;;;;18.44;64.33;100951.97;5047990;28;20048;-80
2022/08/14 01:45:39;;;;;;;9.57;7.90;;;;;;;18.48;63.88;100955.97;5049975;28;20028;-74
2022/08/14 01:48:05;;;;;;;9.77;7.68;;;;;;;18.41;64.26;100959.44;5049241;28;20021;-73
2022/08/14 01:50:31;;;;;;;8.95;8.18;;;;;;;18.39;64.34;100956.94;5044020;28;20025;-73
2022/08/14 01:52:59;;;;;;;8.52;7.80;;;;;;;18.33;64.87;100957.59;5049062;28;20017;-73
2022/08/14 01:55:30;;;;;;;8.45;7.72;;;;;;;18.29;64.44;100953.56;5048912;28;20382;-74
2022/08/14 01:57:59;;;;;;;9.40;7.53;;;;;;;18.28;64.50;100953.72;5048505;28;20021;-81
2022/08/14 02:00:24;;;;;;;13.15;7.85;;;;;;;18.32;64.70;100947.91;5050393;28;20028;-81
2022/08/14 02:02:49;;;;;;;8.13;7.32;;;;;;;18.35;64.93;100944.09;5049717;28;20024;-80
2022/08/14 02:05:16;;;;;;;9.75;8.30;;;;;;;18.27;64.85;100941.41;5049793;28;20117;-74
2022/08/14 02:07:44;;;;;;;9.38;8.30;;;;;;;18.15;65.55;100951.53;5044751;28;20175;-74
2022/08/14 02:10:11;;;;;;;9.32;8.35;;;;;;;18.17;66.03;100946.88;5048913;28;20027;-73
2022/08/14 02:12:36;;;;;;;8.90;8.00;;;;;;;18.11;66.09;100947.53;5050070;28;20051;-73
2022/08/14 02:15:04;;;;;;;9.23;8.32;;;;;;;18.08;65.97;100938.03;5048046;28;20025;-73
2022/08/14 02:17:33;;;;;;;9.38;8.40;;;;;;;18.03;66.02;100935.00;5048678;28;20025;-73
2022/08/14 02:19:58;;;;;;;9.50;8.48;;;;;;;17.99;66.22;100938.13;5049587;28;20037;-81
2022/08/14 02:22:24;;;;;;;9.80;8.80;;;;;;;18.01;66.27;100930.81;5048597;28;20473;-81
2022/08/14 02:24:50;;;;;;;10.73;8.65;;;;;;;17.92;66.19;100931.78;5044241;28;20028;-81
2022/08/14 02:27:17;;;;;;;9.88;8.60;;;;;;;17.86;66.80;100943.88;5047946;28;20882;-81
2022/08/14 02:29:43;;;;;;;10.00;8.85;;;;;;;17.88;66.60;100941.06;5050016;28;20033;-74
2022/08/14 02:32:09;;;;;;;9.38;8.55;;;;;;;17.79;66.79;100938.38;5039585;28;20021;-74
2022/08/14 02:34:37;;;;;;;9.27;8.30;;;;;;;17.82;67.00;100926.56;5028871;28;20092;-74
2022/08/14 02:37:11;;;;;;;10.50;8.75;;;;;;;17.74;67.21;100931.84;5028399;28;20024;-81
2022/08/14 02:39:40;;;;;;;8.82;8.10;;;;;;;17.77;67.29;100924.38;5036259;28;20043;-81
2022/08/14 02:42:12;;;;;;;9.80;8.60;;;;;;;17.76;67.30;100925.38;5047420;28;20044;-81
2022/08/14 02:44:39;;;;;;;11.90;8.40;;;;;;;17.79;67.54;100926.88;5048437;28;20060;-74
2022/08/14 02:47:06;;;;;;;9.80;8.55;;;;;;;17.68;67.55;100924.50;5048315;28;20017;-74
2022/08/14 02:49:32;;;;;;;8.70;7.90;;;;;;;17.67;67.74;100922.84;5047743;28;20025;-74
2022/08/14 02:51:57;;;;;;;9.75;8.82;;;;;;;17.55;68.25;100923.03;5045428;28;20509;-74
2022/08/14 02:54:28;;;;;;;10.77;8.57;;;;;;;17.52;68.29;100920.69;5048609;28;20513;-81
2022/08/14 02:56:56;;;;;;;10.18;9.20;;;;;;;17.54;68.46;100928.53;5042582;28;20025;-81
2022/08/14 02:59:23;;;;;;;13.00;10.20;;;;;;;17.50;68.18;100929.81;5046353;28;20029;-74
2022/08/14 03:01:49;;;;;;;12.15;9.73;;;;;;;17.45;68.24;100921.47;5049025;28;20029;-81
2022/08/14 03:04:15;;;;;;;13.13;10.73;;;;;;;17.48;68.47;100921.16;5046533;28;20496;-80
2022/08/14 03:06:42;;;;;;;11.38;10.35;;;;;;;17.41;68.47;100918.31;5047929;28;20036;-73
2022/08/14 03:09:08;;;;;;;13.38;10.73;;;;;;;17.38;68.97;100913.31;5048491;28;20422;-81
2022/08/14 03:11:34;;;;;;;12.25;10.85;;;;;;;17.39;68.63;100914.97;5048906;28;20386;-81
2022/08/14 03:14:00;;;;;;;11.18;10.18;;;;;;;17.33;69.08;100918.25;5045494;28;20021;-82
2022/08/14 03:16:26;;;;;;;12.68;11.05;;;;;;;17.27;68.79;100910.91;5045683;28;20031;-82
2022/08/14 03:18:59;;;;;;;12.75;11.02;;;;;;;17.17;69.28;100908.31;5048853;28;20432;-81
2022/08/14 03:21:25;;;;;;;11.38;10.25;;;;;;;17.21;69.12;100911.50;5047086;28;20425;-74
2022/08/14 03:24:11;;;;;;;11.38;10.27;;;;;;;17.23;69.19;100920.19;5049344;28;20031;-81
2022/08/14 03:26:38;;;;;;;11.95;9.98;;;;;;;17.16;69.57;100913.78;5048810;28;20029;-74
2022/08/14 03:29:05;;;;;;;10.85;9.68;;;;;;;17.20;69.50;100909.81;5047354;28;20028;-82
2022/08/14 03:31:31;;;;;;;14.10;10.55;;;;;;;17.12;69.81;100909.78;5043904;28;20075;-82
2022/08/14 03:33:59;;;;;;;12.30;9.93;;;;;;;17.06;70.20;100902.41;5046036;28;20033;-82
2022/08/14 03:36:24;;;;;;;13.05;9.70;;;;;;;17.05;70.03;100896.25;5048204;28;20032;-82
2022/08/14 03:38:54;;;;;;;12.07;9.60;;;;;;;17.04;69.96;100894.59;5048267;28;20084;-82
2022/08/14 03:41:26;;;;;;;11.57;9.63;;;;;;;17.05;70.05;100892.78;5045938;28;20495;-74
2022/08/14 03:44:03;;;;;;;10.32;9.32;;;;;;;17.07;69.59;100893.44;5047688;28;20033;-81
2022/08/14 03:46:35;;;;;;;14.45;10.48;;;;;;;16.94;70.38;100888.53;5048562;28;20032;-81
2022/08/14 03:49:03;;;;;;;11.40;10.13;;;;;;;16.98;70.31;100899.69;5041932;28;20108;-81
2022/08/14 03:51:30;;;;;;;11.98;9.88;;;;;;;16.87;70.70;100893.63;5048232;28;20025;-82
2022/08/14 03:53:57;;;;;;;11.13;9.93;;;;;;;16.92;70.51;100896.66;5048793;28;20496;-81
2022/08/14 03:56:25;;;;;;;14.63;10.50;;;;;;;16.87;70.88;100898.94;5050892;28;20056;-81
2022/08/14 03:58:53;;;;;;;10.90;9.88;;;;;;;16.77;70.86;100897.34;5050327;28;20025;-81
2022/08/14 04:01:21;;;;;;;12.00;10.90;;;;;;;16.72;70.82;100894.31;5051468;28;20363;-81
2022/08/14 04:03:48;;;;;;;11.38;10.20;;;;;;;16.73;70.87;100901.28;5048569;28;20090;-81
2022/08/14 04:06:15;;;;;;;11.57;10.48;;;;;;;16.74;71.18;100898.47;5048059;28;20032;-81
2022/08/14 04:08:41;;;;;;;12.13;10.45;;;;;;;16.68;71.36;100904.41;5050175;28;20689;-81
2022/08/14 04:11:08;;;;;;;10.95;9.95;;;;;;;16.67;71.35;100897.41;5049544;28;20024;-82
2022/08/14 04:13:36;;;;;;;13.68;10.18;;;;;;;16.68;71.37;100892.94;5050225;28;20638;-81
2022/08/14 04:16:04;;;;;;;13.68;10.85;;;;;;;16.63;71.09;100889.88;5050944;28;20031;-81
2022/08/14 04:18:31;;;;;;;11.90;10.80;;;;;;;16.57;71.47;100886.00;5051606;28;20025;-81
2022/08/14 04:20:57;;;;;;;13.60;10.82;;;;;;;16.49;71.72;100889.41;5050686;28;20382;-74
2022/08/14 04:23:24;;;;;;;11.65;10.38;;;;;;;16.55;72.00;100891.47;5050929;28;20025;-81
2022/08/14 04:25:52;;;;;;;11.73;10.63;;;;;;;16.55;71.77;100887.97;5046274;28;20116;-81
2022/08/14 04:28:18;;;;;;;13.48;10.75;;;;;;;16.55;71.84;100880.00;5051897;28;20028;-80
2022/08/14 04:30:44;;;;;;;11.45;10.25;;;;;;;16.48;72.02;100878.94;5050921;28;20088;-82
2022/08/14 04:33:10;;;;;;;13.35;10.35;;;;;;;16.52;72.13;100882.97;5049397;28;20036;-82
2022/08/14 04:35:37;;;;;;;11.82;10.63;;;;;;;16.43;72.28;100878.56;5050977;28;20438;-75
2022/08/14 04:43:39;;;;;;;15.38;11.93;;;;;;;16.46;71.91;100862.31;5050984;28;20059;-74
2022/08/14 04:46:07;;;;;;;14.20;11.43;;;;;;;16.46;71.91;100867.66;5049455;28;20103;-74
2022/08/14 04:48:33;;;;;;;17.58;11.95;;;;;;;16.50;72.04;100864.53;5049578;28;20029;-74
2022/08/14 04:50:59;;;;;;;13.35;12.05;;;;;;;16.48;72.19;100863.00;5048601;28;20501;-75
2022/08/14 04:53:27;;;;;;;13.60;12.27;;;;;;;16.49;72.58;100856.72;5048592;28;20035;-74
2022/08/14 04:55:53;;;;;;;13.90;12.27;;;;;;;16.43;72.60;100854.66;5044316;28;20100;-74
2022/08/14 04:58:23;;;;;;;14.20;12.73;;;;;;;16.40;73.61;100863.75;5050024;28;20025;-82
2022/08/14 05:00:50;;;;;;;18.38;12.85;;;;;;;16.44;73.69;100854.50;5051032;28;20035;-82
2022/08/14 05:03:19;;;;;;;14.05;12.63;;;;;;;16.47;73.34;100848.06;5048530;28;20029;-80
2022/08/14 05:05:48;;;;;;;13.38;11.98;;;;;;;16.45;73.71;100850.03;5049590;28;20025;-75
2022/08/14 05:08:13;;;;;;;14.25;12.75;;;;;;;16.40;74.29;100852.28;5050708;28;20100;-81
2022/08/14 05:10:44;;;;;;;13.88;11.93;;;;;;;16.38;74.14;100849.78;5051090;28;20063;-81
2022/08/14 05:13:11;;;;;;;13.02;11.80;;;;;;;16.40;74.37;100846.97;5047145;28;20029;-81
2022/08/14 05:15:40;;;;;;;13.73;11.60;;;;;;;16.40;74.48;100853.13;5048897;28;20382;-73
2022/08/14 05:18:15;;;;;;;15.02;11.52;;;;;;;16.43;74.28;100852.00;5049861;28;20022;-73
2022/08/14 05:20:46;;;;;;;12.23;11.02;;;;;;;16.51;74.68;100847.59;5050273;28;20040;-74
2022/08/14 05:23:21;;;;;;;13.43;10.30;;;;;;;16.72;73.48;100849.97;5048794;28;20498;-74
2022/08/14 05:25:50;;;;;;;11.82;9.52;;;;;;;16.92;72.61;100848.81;5051036;28;20032;-74
2022/08/14 05:28:24;;;;;;;9.98;8.98;;;;;;;17.10;72.05;100851.44;5049247;28;20575;-73
2022/08/14 05:31:18;;;;;;;10.05;8.82;;;;;;;17.26;70.87;100845.41;5046973;28;20039;-73
2022/08/14 05:33:45;;;;;;;12.82;9.73;;;;;;;17.31;72.49;100847.59;5039000;28;20567;-81
2022/08/14 05:36:12;;;;;;;10.63;9.52;;;;;;;17.44;72.09;100846.16;5049553;28;20032;-81
2022/08/14 05:38:43;;;;;;;10.68;9.57;;;;;;;17.45;72.06;100839.84;5050252;28;20067;-80
2022/08/14 05:41:12;;;;;;;9.80;8.90;;;;;;;17.55;71.18;100848.53;5048669;28;20521;-81
2022/08/14 05:43:39;;;;;;;10.77;8.60;;;;;;;17.77;70.28;100843.69;5050036;28;20118;-74
2022/08/14 05:46:05;;;;;;;12.88;8.77;;;;;;;17.91;69.58;100847.56;5048131;28;20021;-74
2022/08/14 05:48:31;;;;;;;9.65;8.57;;;;;;;18.10;68.98;100836.66;5043954;28;20029;-82
2022/08/14 05:50:57;;;;;;;9.68;8.50;;;;;;;18.23;68.40;100838.84;5047779;28;20052;-81
2022/08/14 05:53:24;;;;;;;9.77;8.60;;;;;;;18.35;67.70;100838.38;5049030;28;20060;-81
2022/08/14 05:55:50;;;;;;;12.60;9.40;;;;;;;18.45;67.52;100835.56;5073679;28;20021;-81
2022/08/14 05:58:16;;;;;;;11.30;8.63;;;;;;;18.54;67.51;100839.91;5045729;28;20029;-81
2022/08/14 06:00:43;;;;;;;9.18;8.27;;;;;;;18.66;66.95;100841.28;5081579;28;20025;-81
2022/08/14 06:03:13;;;;;;;9.70;8.52;;;;;;;18.77;66.62;100840.09;5048147;28;20372;-73
2022/08/14 06:05:40;;;;;;;9.10;8.27;;;;;;;18.82;67.51;100839.63;5046294;28;20028;-82
2022/08/14 06:08:14;;;;;;;12.95;8.73;;;;;;;18.93;66.33;100841.94;5049659;28;20017;-82
2022/08/14 06:10:39;;;;;;;9.48;8.45;;;;;;;19.07;65.80;100838.59;5048884;28;20081;-81
2022/08/14 06:13:05;;;;;;;9.35;8.13;;;;;;;19.11;66.13;100837.25;5049166;28;20103;-82
2022/08/14 06:15:30;;;;;;;11.32;8.50;;;;;;;19.26;65.61;100838.25;5049634;28;20029;-73
2022/08/14 06:17:55;;;;;;;9.40;8.38;;;;;;;19.42;64.49;100832.03;5049382;28;20163;-74
2022/08/14 06:20:21;;;;;;;9.38;8.32;;;;;;;19.47;64.99;100834.16;5041989;28;20036;-74
2022/08/14 06:22:47;;;;;;;12.57;7.80;;;;;;;19.55;65.28;100831.50;5046958;28;20032;-74
2022/08/14 06:25:14;;;;;;;11.10;7.47;;;;;;;19.69;64.22;100834.31;5049493;28;20115;-82
2022/08/14 06:27:44;;;;;;;12.88;7.70;;;;;;;19.81;63.57;100826.75;5049524;28;20095;-82
2022/08/14 06:30:13;;;;;;;7.75;7.05;;;;;;;19.97;63.38;100823.97;5048307;28;20031;-81
2022/08/14 06:32:39;;;;;;;7.85;7.10;;;;;;;20.10;62.52;100817.25;5048767;28;20126;-74
2022/08/14 06:35:06;;;;;;;9.85;7.55;;;;;;;20.18;62.09;100823.38;5046977;28;20052;-83
2022/08/14 06:37:49;;;;;;;8.48;7.28;;;;;;;20.26;61.80;100825.16;5043206;28;20029;-83
2022/08/14 06:40:23;;;;;;;8.23;7.43;;;;;;;20.36;61.37;100820.41;5048438;28;20036;-81
2022/08/14 06:42:49;;;;;;;9.43;7.20;;;;;;;20.57;60.91;100827.81;5047687;28;20059;-81
2022/08/14 06:45:15;;;;;;;8.50;7.03;;;;;;;20.65;60.70;100817.88;5046258;28;20458;-82
2022/08/14 06:47:43;;;;;;;7.90;7.10;;;;;;;20.73;60.63;100813.47;5048897;28;20052;-82
2022/08/14 06:50:12;;;;;;;7.68;6.90;;;;;;;20.84;59.82;100819.25;5048072;28;20029;-81
2022/08/14 06:52:38;;;;;;;9.07;6.90;;;;;;;21.06;58.62;100817.53;5048289;28;20033;-81
2022/08/14 06:55:05;;;;;;;10.80;7.10;;;;;;;21.14;58.36;100814.75;5043085;28;20020;-83
2022/08/14 06:57:39;;;;;;;9.90;6.65;;;;;;;21.26;58.69;100820.53;5048777;28;20059;-81
2022/08/14 07:00:10;;;;;;;11.40;6.90;;;;;;;21.34;58.78;100816.94;5045880;28;20021;-83
2022/08/14 07:08:10;;;;;;;9.10;7.07;;;;;;;22.00;57.29;100804.38;5048593;28;20043;-83
2022/08/14 07:10:35;;;;;;;8.10;6.47;;;;;;;22.30;55.43;100800.63;5045230;28;20036;-82
2022/08/14 07:13:01;;;;;;;10.43;6.90;;;;;;;22.56;53.38;100800.06;5040959;28;20025;-83
2022/08/14 07:15:26;;;;;;;7.32;6.20;;;;;;;22.73;53.41;100797.91;5047477;28;20049;-83
2022/08/14 07:17:52;;;;;;;8.90;6.20;;;;;;;23.05;52.91;100800.06;5044241;28;20091;-81
2022/08/14 07:20:19;;;;;;;8.02;6.50;;;;;;;23.24;52.50;100797.72;5046022;28;20482;-81
2022/08/14 07:22:45;;;;;;;7.40;6.65;;;;;;;23.47;51.21;100792.88;5043072;28;20032;-83
2022/08/14 07:25:10;;;;;;;7.07;6.30;;;;;;;23.66;50.33;100792.19;5047155;28;20069;-82
2022/08/14 07:27:38;;;;;;;7.03;5.88;;;;;;;23.88;50.02;100795.56;5051556;28;20033;-82
2022/08/14 07:30:04;;;;;;;8.05;6.03;;;;;;;24.10;49.35;100793.56;5051436;28;20079;-82
2022/08/14 07:32:30;;;;;;;7.93;5.82;;;;;;;24.34;49.09;100795.69;5049239;28;20061;-83
2022/08/14 07:34:55;;;;;;;7.38;6.35;;;;;;;24.47;48.43;100792.22;5055898;28;20502;-81
2022/08/14 07:37:21;;;;;;;6.70;6.00;;;;;;;24.81;47.62;100793.84;5051406;28;20021;-74
2022/08/14 07:39:46;;;;;;;9.20;5.90;;;;;;;25.02;47.71;100789.31;5053553;28;20036;-82
2022/08/14 07:42:11;;;;;;;6.50;5.53;;;;;;;25.20;47.01;100778.72;5051758;28;20080;-82
2022/08/14 07:44:37;;;;;;;7.50;5.65;;;;;;;25.55;46.50;100779.22;5051577;28;20032;-82
2022/08/14 07:47:02;;;;;;;7.05;6.05;;;;;;;25.76;45.89;100780.84;5051944;28;20032;-83
2022/08/14 07:49:29;;;;;;;6.35;5.50;;;;;;;26.09;44.62;100778.81;5053291;28;20101;-82
2022/08/14 07:51:55;;;;;;;7.22;5.78;;;;;;;26.21;44.31;100787.84;5052312;28;20056;-82
2022/08/14 07:54:21;;;;;;;6.13;5.53;;;;;;;26.43;43.39;100785.66;5050779;28;20044;-82
2022/08/14 07:56:46;;;;;;;7.68;5.57;;;;;;;26.51;43.56;100782.69;5045470;28;20033;-81
2022/08/14 07:59:16;;;;;;;8.52;5.72;;;;;;;26.78;42.73;100777.88;5050492;28;20041;-83
2022/08/14 08:01:43;;;;;;;8.50;5.60;;;;;;;26.97;43.05;100791.44;5046728;28;20036;-82
2022/08/14 08:04:09;;;;;;;6.45;5.25;;;;;;;27.33;42.36;100791.50;5048012;28;20540;-83
2022/08/14 08:06:37;;;;;;;7.45;5.53;;;;;;;27.42;41.33;100779.34;5047775;28;20331;-77
2022/08/14 08:09:03;;;;;;;10.00;6.30;;;;;;;27.39;41.44;100779.78;5042033;28;20503;-76
2022/08/14 08:11:33;;;;;;;5.80;5.00;;;;;;;27.60;41.43;100783.91;5050856;28;20025;-76
2022/08/14 08:14:01;;;;;;;6.32;5.50;;;;;;;27.69;40.94;100779.06;5044486;28;20020;-83
2022/08/14 08:16:27;;;;;;;5.53;4.88;;;;;;;27.85;40.79;100783.00;5078675;28;20532;-75
2022/08/14 08:18:53;;;;;;;9.77;5.28;;;;;;;27.88;40.53;100767.13;5050925;28;20039;-76
2022/08/14 08:21:18;;;;;;;5.78;4.85;;;;;;;28.27;40.04;100770.34;5049527;28;20427;-82
2022/08/14 08:23:43;;;;;;;6.75;4.70;;;;;;;28.33;38.29;100764.00;5041258;28;20048;-76
2022/08/14 08:26:09;;;;;;;7.18;4.60;;;;;;;28.45;38.95;100750.53;5048956;28;20029;-83
2022/08/14 08:28:34;;;;;;;10.15;5.10;;;;;;;28.51;38.43;100742.28;5044905;28;20021;-76
2022/08/14 08:31:04;;;;;;;5.82;5.18;;;;;;;28.46;37.95;100747.56;5047704;28;20025;-82
2022/08/14 08:33:31;;;;;;;8.20;4.80;;;;;;;28.38;37.47;100747.91;5049221;28;20625;-76
2022/08/14 08:36:02;;;;;;;5.38;4.88;;;;;;;28.49;37.11;100741.69;5045458;28;20436;-76
2022/08/14 08:38:28;;;;;;;8.35;5.07;;;;;;;28.74;37.82;100762.28;5050903;28;20025;-76
2022/08/14 08:40:57;;;;;;;5.90;4.47;;;;;;;29.20;37.47;100770.41;5037927;28;20048;-77
2022/08/14 08:43:31;;;;;;;6.53;5.22;;;;;;;29.41;36.65;100757.31;5047757;28;20037;-77
2022/08/14 08:46:09;;;;;;;5.82;4.93;;;;;;;29.41;36.58;100754.59;5040137;28;20072;-83
2022/08/14 08:48:50;;;;;;;5.38;4.78;;;;;;;29.56;36.50;100763.06;5051605;28;20048;-77
2022/08/14 08:51:45;;;;;;;6.65;4.70;;;;;;;29.86;37.63;100752.00;5045554;28;20033;-83
2022/08/14 08:54:13;;;;;;;4.85;4.38;;;;;;;29.87;35.01;100749.03;5030861;28;20095;-83
2022/08/14 08:56:40;;;;;;;6.65;4.80;;;;;;;30.04;36.76;100748.28;5054362;28;20031;-83
2022/08/14 08:59:22;;;;;;;4.90;4.43;;;;;;;30.40;35.76;100747.81;5048943;28;20029;-77
2022/08/14 09:01:50;;;;;;;6.68;4.90;;;;;;;30.32;33.09;100755.53;5043660;28;20028;-83
2022/08/14 09:04:15;;;;;;;5.38;4.88;;;;;;;30.46;33.31;100746.03;5048837;28;20024;-76
2022/08/14 09:06:49;;;;;;;8.02;4.20;;;;;;;30.45;32.50;100747.91;5050466;28;20111;-75
2022/08/14 09:09:28;;;;;;;9.25;4.53;;;;;;;30.58;33.38;100738.59;5050210;28;20099;-82
2022/08/14 09:11:55;;;;;;;4.97;4.47;;;;;;;30.56;32.33;100736.13;5040131;28;20437;-76
2022/08/14 09:14:21;;;;;;;7.05;4.47;;;;;;;30.75;33.15;100733.16;5044177;28;20027;-82
2022/08/14 09:16:48;;;;;;;7.00;4.60;;;;;;;30.81;32.34;100729.44;5054094;28;20021;-76
2022/08/14 09:19:14;;;;;;;5.50;4.68;;;;;;;30.74;32.93;100731.53;5051161;28;20021;-75
2022/08/14 09:21:39;;;;;;;6.65;4.43;;;;;;;30.84;33.51;100723.53;5051106;28;20033;-83
2022/08/14 09:24:09;;;;;;;6.30;4.65;;;;;;;30.70;32.52;100720.34;5050832;28;20104;-82
2022/08/14 09:26:36;;;;;;;6.05;4.32;;;;;;;30.81;31.42;100726.72;5056052;28;20021;-83
2022/08/14 09:29:03;;;;;;;5.60;4.05;;;;;;;31.06;31.20;100721.66;5033169;28;20057;-82
2022/08/14 09:31:29;;;;;;;9.35;4.28;;;;;;;31.23;31.12;100718.09;5035473;28;20025;-83
2022/08/14 09:34:14;;;;;;;4.40;4.00;;;;;;;31.05;32.13;100727.34;5050008;28;20098;-82
2022/08/14 09:36:45;;;;;;;8.23;3.90;;;;;;;31.18;32.02;100722.38;5051373;28;20104;-83
2022/08/14 09:39:42;;;;;;;9.03;4.13;;;;;;;31.39;31.66;100712.59;5050654;28;20048;-84
2022/08/14 09:42:21;;;;;;;5.38;3.38;;;;;;;31.43;30.46;100702.03;5051776;28;20064;-76
2022/08/14 09:45:05;;;;;;;4.88;3.88;;;;;;;31.55;31.04;100699.97;5049648;28;20532;-76
2022/08/14 09:47:49;;;;;;;4.90;3.90;;;;;;;31.54;31.34;100692.88;5053990;28;20075;-75
2022/08/14 09:50:18;;;;;;;6.55;3.70;;;;;;;31.55;31.10;100693.72;5036772;28;20530;-77
2022/08/14 09:52:57;;;;;;;6.95;3.30;;;;;;;31.74;30.94;100684.97;5051256;28;20033;-82
2022/08/14 09:55:26;;;;;;;8.02;3.80;;;;;;;31.82;30.12;100688.31;5049585;28;20025;-83
2022/08/14 09:58:05;;;;;;;4.72;3.75;;;;;;;31.75;30.13;100683.91;5049152;28;20361;-82
2022/08/14 10:00:44;;;;;;;7.00;3.95;;;;;;;31.64;31.06;100682.13;5027636;28;20039;-82
2022/08/14 10:03:09;;;;;;;4.35;3.50;;;;;;;31.90;30.87;100679.66;5036182;28;20033;-75
2022/08/14 10:05:35;;;;;;;6.40;3.80;;;;;;;31.86;30.91;100679.38;5043767;28;20104;-76
2022/08/14 10:08:20;;;;;;;4.20;3.80;;;;;;;32.08;31.26;100666.50;5057306;28;20099;-82
2022/08/14 10:10:46;;;;;;;7.63;3.88;;;;;;;32.34;30.37;100664.81;5054364;28;20036;-82
2022/08/14 10:13:25;;;;;;;6.25;4.22;;;;;;;32.49;30.44;100660.56;5060123;28;20069;-83
2022/08/14 10:15:58;;;;;;;5.88;4.25;;;;;;;32.46;30.57;100666.53;5054112;28;20039;-82
2022/08/14 10:18:26;;;;;;;5.82;4.20;;;;;;;32.25;32.05;100658.22;5053891;28;20017;-83
2022/08/14 10:20:59;;;;;;;6.32;4.45;;;;;;;32.20;31.15;100658.16;5042846;28;20430;-83
2022/08/14 10:23:37;;;;;;;6.90;4.20;;;;;;;31.79;30.66;100657.81;5048134;28;20048;-76
2022/08/14 10:26:06;;;;;;;4.40;4.00;;;;;;;31.75;31.72;100662.13;5041246;28;20032;-75
2022/08/14 10:28:41;;;;;;;6.13;4.00;;;;;;;32.06;31.40;100662.41;5046078;28;20090;-75
2022/08/14 10:31:33;;;;;;;10.25;4.07;;;;;;;32.28;31.39;100643.25;5042942;28;20025;-75
2022/08/14 10:34:02;;;;;;;8.60;4.18;;;;;;;32.53;30.32;100640.69;5047893;28;20394;-83
2022/08/14 10:36:32;;;;;;;6.40;4.15;;;;;;;32.82;30.17;100635.66;5043502;28;20036;-82
2022/08/14 10:39:06;;;;;;;6.60;4.22;;;;;;;33.14;29.35;100640.16;5047500;28;20030;-81
2022/08/14 10:41:40;;;;;;;6.85;4.13;;;;;;;33.08;29.26;100631.16;5052171;28;20044;-82
2022/08/14 10:44:11;;;;;;;5.72;4.18;;;;;;;33.44;29.46;100620.34;5044423;28;20025;-82
2022/08/14 10:46:46;;;;;;;4.80;4.10;;;;;;;33.37;29.26;100623.34;5051934;28;20025;-82
2022/08/14 10:49:24;;;;;;;7.30;4.20;;;;;;;33.55;30.20;100622.81;5049753;28;20020;-80
2022/08/14 10:52:08;;;;;;;5.38;4.00;;;;;;;33.38;29.63;100625.00;5060769;28;20032;-76
2022/08/14 10:54:44;;;;;;;6.82;4.75;;;;;;;33.19;30.09;100629.25;5048989;28;20020;-77
2022/08/14 10:57:14;;;;;;;6.95;4.10;;;;;;;33.03;30.19;100615.59;5048515;28;20025;-76
2022/08/14 11:00:11;;;;;;;9.10;4.28;;;;;;;33.16;30.50;100616.16;5048995;28;20450;-76
2022/08/14 11:02:38;;;;;;;5.35;3.67;;;;;;;33.19;29.00;100615.63;5070151;28;20033;-76
2022/08/14 11:05:11;;;;;;;5.65;3.80;;;;;;;33.37;29.17;100617.91;5051982;28;20032;-75
2022/08/14 11:07:39;;;;;;;7.40;4.15;;;;;;;33.33;29.60;100611.34;5051843;28;20028;-84
2022/08/14 11:10:11;;;;;;;6.68;4.05;;;;;;;33.26;29.33;100621.66;5047435;28;20035;-81
2022/08/14 11:12:48;;;;;;;8.80;3.65;;;;;;;33.24;28.83;100621.13;5046242;28;20024;-83
2022/08/14 11:15:15;;;;;;;5.68;3.40;;;;;;;33.12;27.73;100617.78;5048329;28;20053;-83
2022/08/14 11:17:41;;;;;;;7.50;3.08;;;;;;;32.90;27.25;100609.84;5047934;28;20108;-82
2022/08/14 11:20:08;;;;;;;3.67;3.30;;;;;;;33.06;27.78;100613.41;5039541;28;20119;-82
2022/08/14 11:22:38;;;;;;;4.80;3.45;;;;;;;32.98;28.08;100610.13;5052137;28;20105;-83
2022/08/14 11:25:05;;;;;;;4.20;3.50;;;;;;;33.17;27.72;100612.34;5059012;28;20021;-83
2022/08/14 11:27:32;;;;;;;4.00;3.60;;;;;;;32.99;28.50;100606.31;5049419;28;20021;-82
2022/08/14 11:30:05;;;;;;;5.55;3.55;;;;;;;33.07;29.08;100609.59;5054859;28;20059;-82
2022/08/14 11:32:31;;;;;;;4.80;3.90;;;;;;;33.16;28.57;100605.25;5051115;28;20090;-75
2022/08/14 11:35:02;;;;;;;5.65;3.33;;;;;;;33.30;28.30;100609.97;5061352;28;20490;-76
2022/08/14 11:37:32;;;;;;;4.30;3.25;;;;;;;33.36;27.14;100605.34;5052216;28;20103;-75
2022/08/14 11:39:58;;;;;;;4.95;3.10;;;;;;;33.48;26.93;100602.34;5049370;28;20478;-76
2022/08/14 11:42:25;;;;;;;4.53;3.20;;;;;;;33.52;26.20;100592.53;5051570;28;20486;-75
2022/08/14 11:44:57;;;;;;;3.47;3.00;;;;;;;33.59;25.57;100579.44;5052495;28;20021;-75
2022/08/14 11:47:23;;;;;;;3.47;2.90;;;;;;;33.67;26.29;100576.19;5048595;28;20025;-75